Time;durP1;ratioP1;P1;durP2;ratioP2;P2;SDS_P1;SDS_P2;PMS_P1;PMS_P2;Temp;Humidity;BMP_temperature;BMP_pressure;BME280_temperature;BME280_humidity;BME280_pressure;Samples;Min_cycle;Max_cycle;Signal;HPM_P1;HPM_P2
2022/05/31 00:00:23;;;;;;;;;;;;;;;21.15;47.78;95161.38;2076113;28;1718;-68
2022/05/31 00:01:27;;;;;;;;;;;;;;;21.15;47.64;95161.38;2075740;28;1776;-67
2022/05/31 00:02:30;;;;;;;;;;;;;;;21.13;47.59;95159.94;2081821;28;1111;-67
2022/05/31 00:03:33;;;;;;;;;;;;;;;21.17;47.44;95161.16;2081103;28;1406;-68
2022/05/31 00:04:36;;;;;;;;;;;;;;;21.20;47.63;95158.13;2081130;28;1692;-68
2022/05/31 00:05:38;;;;;;;;;;;;;;;21.12;47.60;95161.81;2072390;28;1524;-65
2022/05/31 00:06:40;;;;;;;;;;;;;;;21.10;47.87;95163.84;2081710;28;1792;-68
2022/05/31 00:07:42;;;;;;;;;;;;;;;21.09;47.66;95162.22;2081782;28;1135;-68
2022/05/31 00:08:45;;;;;;;;;;;;;;;21.09;47.89;95164.91;2081680;28;1695;-67
2022/05/31 00:09:47;;;;;;;;;;;;;;;21.11;47.59;95160.16;2081340;28;1741;-67
2022/05/31 00:10:50;;;;;;;;;;;;;;;21.10;47.67;95160.38;2081397;28;1754;-67
2022/05/31 00:11:52;;;;;;;;;;;;;;;21.09;47.45;95161.41;2080469;28;1483;-68
2022/05/31 00:12:55;;;;;;;;;;;;;;;21.04;47.44;95156.69;2080699;28;1776;-68
2022/05/31 00:13:57;;;;;;;;;;;;;;;21.04;47.62;95156.69;2081529;28;1752;-68
2022/05/31 00:15:00;;;;;;;;;;;;;;;21.06;47.40;95151.97;2081303;28;1964;-68
2022/05/31 00:16:03;;;;;;;;;;;;;;;21.02;47.46;95153.41;2080878;28;1010;-66
2022/05/31 00:17:06;;;;;;;;;;;;;;;21.00;47.36;95148.28;2075062;28;1193;-67
2022/05/31 00:18:08;;;;;;;;;;;;;;;20.95;47.65;95156.09;2080376;28;1596;-68
2022/05/31 00:19:11;;;;;;;;;;;;;;;20.98;47.64;95153.00;2080224;28;1618;-66
2022/05/31 00:20:13;;;;;;;;;;;;;;;20.93;47.57;95152.00;2080576;28;1867;-68
2022/05/31 00:21:16;;;;;;;;;;;;;;;20.87;47.91;95150.16;2080060;28;1615;-68
2022/05/31 00:22:19;;;;;;;;;;;;;;;20.90;47.75;95152.41;2081543;28;1696;-67
2022/05/31 00:23:23;;;;;;;;;;;;;;;20.88;47.56;95152.63;2081724;28;1814;-67
2022/05/31 00:24:25;;;;;;;;;;;;;;;20.90;47.49;95147.91;2081517;28;1775;-67
2022/05/31 00:25:28;;;;;;;;;;;;;;;20.92;47.86;95151.19;2081522;28;1693;-68
2022/05/31 00:26:29;;;;;;;;;;;;;;;20.89;47.49;95146.25;2081267;28;1109;-67
2022/05/31 00:27:33;;;;;;;;;;;;;;;20.87;47.75;95153.66;2076942;28;1552;-65
2022/05/31 00:28:34;;;;;;;;;;;;;;;20.87;47.53;95159.00;2076699;28;1103;-67
2022/05/31 00:29:38;;;;;;;;;;;;;;;20.87;47.60;95153.66;2081949;28;1178;-66
2022/05/31 00:30:40;;;;;;;;;;;;;;;20.94;47.63;95158.97;2080325;28;1540;-68
2022/05/31 00:31:45;;;;;;;;;;;;;;;20.87;47.51;95152.84;2073334;28;1106;-67
2022/05/31 00:32:48;;;;;;;;;;;;;;;20.84;47.78;95153.25;2079621;28;1727;-68
2022/05/31 00:33:51;;;;;;;;;;;;;;;20.82;47.57;95149.97;2076022;28;1446;-69
2022/05/31 00:34:54;;;;;;;;;;;;;;;20.84;47.53;95155.94;2080944;28;1910;-70
2022/05/31 00:35:57;;;;;;;;;;;;;;;20.78;47.70;95153.06;2079929;28;1703;-68
2022/05/31 00:37:00;;;;;;;;;;;;;;;20.79;47.69;95153.88;2081251;28;1637;-69
2022/05/31 00:38:03;;;;;;;;;;;;;;;20.70;47.85;95153.28;2081751;28;1078;-68
2022/05/31 00:39:05;;;;;;;;;;;;;;;20.81;47.80;95156.34;2077409;28;1179;-69
2022/05/31 00:40:09;;;;;;;;;;;;;;;20.78;47.46;95152.25;2076985;28;1017;-69
2022/05/31 00:41:23;;;;;;;;;;;;;;;20.81;47.48;95156.34;2081197;28;1417;-69
2022/05/31 00:42:25;;;;;;;;;;;;;;;20.78;47.59;95152.25;2081767;28;1049;-69
2022/05/31 00:43:27;;;;;;;;;;;;;;;20.78;47.48;95154.94;2081717;28;1110;-69
2022/05/31 00:44:31;;;;;;;;;;;;;;;20.74;47.61;95157.19;2081511;28;1722;-69
2022/05/31 00:45:35;;;;;;;;;;;;;;;20.75;47.24;95158.81;2080535;28;1870;-67
2022/05/31 00:46:46;;;;;;;;;;;;;;;20.76;47.59;95152.44;2075855;28;1526;-67
2022/05/31 00:47:48;;;;;;;;;;;;;;;20.77;47.42;95154.09;2077180;28;1561;-69
2022/05/31 00:48:55;;;;;;;;;;;;;;;20.76;47.32;95162.31;2072800;28;1814;-68
2022/05/31 00:50:00;;;;;;;;;;;;;;;20.74;47.42;95159.88;2073788;28;1537;-67
2022/05/31 00:51:03;;;;;;;;;;;;;;;20.72;47.17;95161.91;2064718;28;1560;-69
2022/05/31 00:52:08;;;;;;;;;;;;;;;20.68;47.41;95166.03;2080425;28;1731;-69
2022/05/31 00:53:12;;;;;;;;;;;;;;;20.68;47.40;95160.69;2081533;28;1735;-69
2022/05/31 00:54:17;;;;;;;;;;;;;;;20.67;47.67;95160.91;2079108;28;1484;-69
2022/05/31 00:55:21;;;;;;;;;;;;;;;20.68;47.60;95162.53;2080768;28;1918;-69
2022/05/31 00:56:30;;;;;;;;;;;;;;;20.67;47.37;95163.56;2081090;28;1126;-70
2022/05/31 00:57:33;;;;;;;;;;;;;;;20.63;47.41;95165.84;2081766;28;1237;-69
2022/05/31 00:58:37;;;;;;;;;;;;;;;20.64;47.51;95164.81;2081768;28;1077;-67
2022/05/31 00:59:41;;;;;;;;;;;;;;;20.75;47.38;95166.03;2081630;28;1065;-68
2022/05/31 01:00:44;;;;;;;;;;;;;;;20.83;47.50;95164.97;2081635;28;1618;-68
2022/05/31 01:01:51;;;;;;;;;;;;;;;20.75;47.49;95171.38;2076977;28;1066;-68
2022/05/31 01:02:56;;;;;;;;;;;;;;;20.74;47.46;95170.56;2075368;28;1697;-68
2022/05/31 01:03:58;;;;;;;;;;;;;;;20.72;47.39;95169.94;2079772;28;1851;-67
2022/05/31 01:05:02;;;;;;;;;;;;;;;20.71;47.50;95176.28;2080940;28;1589;-67
2022/05/31 01:06:04;;;;;;;;;;;;;;;20.74;47.34;95175.03;2081366;28;1712;-68
2022/05/31 01:07:07;;;;;;;;;;;;;;;20.73;47.48;95176.91;2081376;28;1786;-68
2022/05/31 01:08:10;;;;;;;;;;;;;;;20.71;47.51;95165.59;2081302;28;1729;-68
2022/05/31 01:09:13;;;;;;;;;;;;;;;20.69;47.30;95172.22;2081517;28;1692;-68
2022/05/31 01:10:15;;;;;;;;;;;;;;;20.67;47.59;95164.38;2081380;28;1348;-68
2022/05/31 01:11:20;;;;;;;;;;;;;;;20.66;47.44;95170.78;2081773;28;978;-67
2022/05/31 01:12:23;;;;;;;;;;;;;;;20.68;47.43;95159.88;2081383;28;1556;-69
2022/05/31 01:13:26;;;;;;;;;;;;;;;20.64;47.48;95170.16;2073544;28;1114;-68
2022/05/31 01:14:27;;;;;;;;;;;;;;;20.64;47.69;95167.47;2081619;28;1177;-69
2022/05/31 01:15:30;;;;;;;;;;;;;;;20.60;47.43;95168.94;2081508;28;1903;-70
2022/05/31 01:16:32;;;;;;;;;;;;;;;20.50;47.44;95155.19;2081388;28;1737;-69
2022/05/31 01:17:38;;;;;;;;;;;;;;;20.56;47.42;95168.50;2081313;28;1564;-69
2022/05/31 01:18:40;;;;;;;;;;;;;;;20.65;47.56;95176.31;2080128;28;1969;-70
2022/05/31 01:20:00;;;;;;;;;;;;;;;20.60;47.68;95171.59;2081160;28;1111;-70
2022/05/31 01:21:03;;;;;;;;;;;;;;;20.60;47.52;95168.94;2080480;28;1288;-70
2022/05/31 01:22:06;;;;;;;;;;;;;;;20.60;47.60;95162.75;2080568;28;1771;-70
2022/05/31 01:23:10;;;;;;;;;;;;;;;20.54;47.78;95170.59;2080443;28;1873;-70
2022/05/31 01:24:16;;;;;;;;;;;;;;;20.53;47.71;95168.09;2077371;28;1757;-69
2022/05/31 01:25:23;;;;;;;;;;;;;;;20.60;47.59;95166.25;2076657;28;1177;-70
2022/05/31 01:26:32;;;;;;;;;;;;;;;20.64;47.92;95167.47;2081816;28;1721;-69
2022/05/31 01:27:39;;;;;;;;;;;;;;;20.67;47.49;95172.41;2081577;28;1013;-68
2022/05/31 01:28:47;;;;;;;;;;;;;;;20.68;47.33;95174.03;2081082;28;1713;-68
2022/05/31 01:29:50;;;;;;;;;;;;;;;20.66;47.53;95178.78;2079633;28;1523;-68
2022/05/31 01:30:56;;;;;;;;;;;;;;;20.68;47.55;95179.38;2082647;28;1452;-68
2022/05/31 01:31:59;;;;;;;;;;;;;;;20.70;47.52;95181.84;2083284;28;1641;-67
2022/05/31 01:33:04;;;;;;;;;;;;;;;20.70;47.52;95181.84;2078406;28;1768;-66
2022/05/31 01:34:09;;;;;;;;;;;;;;;20.67;47.89;95180.41;2074587;28;1013;-68
2022/05/31 01:35:17;;;;;;;;;;;;;;;20.66;47.60;95184.13;2080050;28;1716;-68
2022/05/31 01:36:23;;;;;;;;;;;;;;;20.66;47.78;95184.13;2074054;28;1535;-68
2022/05/31 01:37:33;;;;;;;;;;;;;;;20.63;47.68;95183.69;2082776;28;1315;-68
2022/05/31 01:38:42;;;;;;;;;;;;;;;20.57;47.82;95182.66;2082759;28;1763;-68
2022/05/31 01:39:47;;;;;;;;;;;;;;;20.52;48.07;95179.81;2083103;28;1080;-68
2022/05/31 01:40:53;;;;;;;;;;;;;;;20.50;48.01;95176.53;2082255;28;1239;-67
2022/05/31 01:41:57;;;;;;;;;;;;;;;20.53;47.86;95182.28;2082727;28;1061;-68
2022/05/31 01:43:00;;;;;;;;;;;;;;;20.55;47.83;95176.75;2083019;28;1539;-67
2022/05/31 01:44:06;;;;;;;;;;;;;;;20.49;47.96;95173.03;2082664;28;1181;-68
2022/05/31 01:45:10;;;;;;;;;;;;;;;20.54;48.01;95177.75;2080359;28;1662;-68
2022/05/31 01:46:16;;;;;;;;;;;;;;;20.58;47.99;95178.19;2082708;28;1153;-68
2022/05/31 01:47:19;;;;;;;;;;;;;;;20.55;47.98;95177.56;2078888;28;1377;-68
2022/05/31 01:48:22;;;;;;;;;;;;;;;20.53;47.95;95176.13;2077861;28;1194;-68
2022/05/31 01:49:30;;;;;;;;;;;;;;;20.50;48.01;95173.88;2082768;28;1010;-68
2022/05/31 01:50:33;;;;;;;;;;;;;;;20.50;48.07;95171.19;2082480;28;1783;-69
2022/05/31 01:51:40;;;;;;;;;;;;;;;20.50;48.14;95171.19;2081892;28;1525;-67
2022/05/31 01:52:42;;;;;;;;;;;;;;;20.48;48.29;95174.06;2081981;28;1194;-68
2022/05/31 01:53:46;;;;;;;;;;;;;;;20.49;48.20;95173.03;2080869;28;1566;-68
2022/05/31 01:54:48;;;;;;;;;;;;;;;20.49;48.05;95177.56;2082308;28;1557;-68
2022/05/31 01:55:51;;;;;;;;;;;;;;;20.44;48.50;95178.19;2082010;28;1985;-68
2022/05/31 01:56:57;;;;;;;;;;;;;;;20.45;48.19;95176.31;2082502;28;1782;-66
2022/05/31 01:58:03;;;;;;;;;;;;;;;20.45;48.33;95173.66;2082899;28;1805;-68
2022/05/31 01:59:05;;;;;;;;;;;;;;;20.41;48.55;95177.78;2074171;28;1726;-68
2022/05/31 02:00:10;;;;;;;;;;;;;;;20.42;48.24;95174.06;2082397;28;1423;-68
2022/05/31 02:01:11;;;;;;;;;;;;;;;20.40;48.42;95168.94;2082056;28;1582;-67
2022/05/31 02:02:15;;;;;;;;;;;;;;;20.39;48.48;95174.50;2082253;28;1775;-66
2022/05/31 02:03:18;;;;;;;;;;;;;;;20.41;48.48;95175.13;2081461;28;1553;-67
2022/05/31 02:04:21;;;;;;;;;;;;;;;20.37;48.58;95173.88;2081009;28;1549;-67
2022/05/31 02:05:23;;;;;;;;;;;;;;;20.38;48.49;95171.00;2081996;28;1463;-68
2022/05/31 02:06:27;;;;;;;;;;;;;;;20.37;48.51;95171.19;2082478;28;1291;-67
2022/05/31 02:07:30;;;;;;;;;;;;;;;20.34;48.40;95170.56;2082798;28;772;-68
2022/05/31 02:08:33;;;;;;;;;;;;;;;20.33;48.41;95174.25;2082485;28;1134;-68
2022/05/31 02:09:35;;;;;;;;;;;;;;;20.33;48.55;95176.91;2078616;28;998;-68
2022/05/31 02:10:39;;;;;;;;;;;;;;;20.33;48.46;95174.25;2073657;28;1276;-68
2022/05/31 02:11:41;;;;;;;;;;;;;;;20.33;48.64;95179.59;2074372;28;1022;-68
2022/05/31 02:12:44;;;;;;;;;;;;;;;20.38;48.41;95178.19;2074488;28;1383;-67
2022/05/31 02:13:46;;;;;;;;;;;;;;;20.31;48.70;95181.63;2074362;28;1043;-67
2022/05/31 02:14:48;;;;;;;;;;;;;;;20.33;48.35;95184.09;2074296;28;1444;-68
2022/05/31 02:15:50;;;;;;;;;;;;;;;20.32;48.51;95182.47;2079707;28;1485;-67
2022/05/31 02:16:53;;;;;;;;;;;;;;;20.29;48.85;95189.03;2082545;28;1058;-67
2022/05/31 02:17:55;;;;;;;;;;;;;;;20.27;48.71;95185.75;2081773;28;1934;-67
2022/05/31 02:20:18;;;;;;;;;;;;;;;20.30;48.85;95188.00;2081305;28;1678;-67
2022/05/31 02:21:19;;;;;;;;;;;;;;;20.30;48.86;95190.69;2076329;28;1091;-66
2022/05/31 02:22:26;;;;;;;;;;;;;;;20.27;48.99;95187.59;2080658;28;1154;-67
2022/05/31 02:23:29;;;;;;;;;;;;;;;20.26;48.86;95183.28;2082437;28;1169;-68
2022/05/31 02:24:32;;;;;;;;;;;;;;;20.34;48.77;95186.59;2082070;28;1042;-67
2022/05/31 02:25:34;;;;;;;;;;;;;;;20.29;48.77;95185.56;2082214;28;1050;-67
2022/05/31 02:26:40;;;;;;;;;;;;;;;20.36;48.76;95185.53;2082326;28;2052;-67
2022/05/31 02:27:44;;;;;;;;;;;;;;;20.27;48.67;95185.75;2082287;28;1189;-67
2022/05/31 02:28:46;;;;;;;;;;;;;;;20.22;48.94;95182.88;2082544;28;1069;-67
2022/05/31 02:29:49;;;;;;;;;;;;;;;20.20;49.17;95184.91;2080992;28;1581;-67
2022/05/31 02:30:51;;;;;;;;;;;;;;;20.17;48.94;95187.19;2081438;28;1795;-70
2022/05/31 02:31:54;;;;;;;;;;;;;;;20.15;49.27;95186.59;2082585;28;1060;-67
2022/05/31 02:32:56;;;;;;;;;;;;;;;20.12;49.04;95187.81;2072102;28;1573;-67
2022/05/31 02:33:58;;;;;;;;;;;;;;;20.14;49.25;95182.25;2081360;28;1410;-67
2022/05/31 02:35:01;;;;;;;;;;;;;;;20.14;49.15;95185.72;2074206;28;1114;-67
2022/05/31 02:36:04;;;;;;;;;;;;;;;20.13;48.99;95192.09;2074378;28;1832;-67
2022/05/31 02:37:06;;;;;;;;;;;;;;;20.14;48.98;95183.06;2082426;28;1991;-67
2022/05/31 02:38:10;;;;;;;;;;;;;;;20.08;49.07;95187.38;2082185;28;1793;-68
2022/05/31 02:39:13;;;;;;;;;;;;;;;20.08;49.10;95186.56;2082440;28;1118;-68
2022/05/31 02:40:16;;;;;;;;;;;;;;;20.11;49.28;95180.81;2081860;28;1122;-68
2022/05/31 02:41:18;;;;;;;;;;;;;;;20.10;49.00;95188.00;2082133;28;1711;-67
2022/05/31 02:42:22;;;;;;;;;;;;;;;20.10;49.00;95187.19;2081907;28;1649;-68
2022/05/31 02:43:24;;;;;;;;;;;;;;;20.07;49.15;95185.75;2079673;28;1165;-65
2022/05/31 02:44:27;;;;;;;;;;;;;;;20.02;49.14;95182.88;2076011;28;1556;-68
2022/05/31 02:45:29;;;;;;;;;;;;;;;20.07;49.31;95180.41;2081977;28;1782;-67
2022/05/31 02:46:32;;;;;;;;;;;;;;;20.10;49.05;95185.34;2080991;28;1823;-67
2022/05/31 02:47:37;;;;;;;;;;;;;;;20.16;49.17;95191.69;2081260;28;1501;-68
2022/05/31 02:48:39;;;;;;;;;;;;;;;20.14;48.81;95174.25;2082167;28;1126;-68
2022/05/31 02:49:44;;;;;;;;;;;;;;;20.11;49.17;95191.47;2080926;28;1389;-68
2022/05/31 02:50:47;;;;;;;;;;;;;;;20.07;49.02;95184.94;2082350;28;1092;-68
2022/05/31 02:51:49;;;;;;;;;;;;;;;20.05;49.27;95182.44;2081946;28;1811;-67
2022/05/31 02:52:52;;;;;;;;;;;;;;;20.03;49.11;95186.34;2082307;28;1673;-68
2022/05/31 02:53:54;;;;;;;;;;;;;;;20.03;48.95;95178.34;2082207;28;1011;-68
2022/05/31 02:54:58;;;;;;;;;;;;;;;19.97;49.41;95187.97;2077381;28;1185;-69
2022/05/31 02:56:00;;;;;;;;;;;;;;;19.92;49.56;95186.94;2077578;28;1001;-68
2022/05/31 02:57:03;;;;;;;;;;;;;;;20.13;48.90;95191.28;2082043;28;2089;-66
2022/05/31 02:58:05;;;;;;;;;;;;;;;20.20;49.43;95189.44;2082224;28;1126;-66
2022/05/31 02:59:07;;;;;;;;;;;;;;;20.21;48.76;95180.41;2081338;28;1486;-68
2022/05/31 03:00:10;;;;;;;;;;;;;;;20.17;48.72;95196.00;2082462;28;1126;-68
2022/05/31 03:01:20;;;;;;;;;;;;;;;20.34;48.40;95199.94;2079832;28;1464;-67
2022/05/31 03:02:24;;;;;;;;;;;;;;;20.32;48.56;95201.16;2078993;28;1645;-67
2022/05/31 03:03:26;;;;;;;;;;;;;;;20.25;48.79;95201.13;2081555;28;1764;-66
2022/05/31 03:04:29;;;;;;;;;;;;;;;20.02;49.45;95198.88;2080628;28;1507;-67
2022/05/31 03:05:31;;;;;;;;;;;;;;;20.17;48.84;95204.00;2082329;28;1006;-67
2022/05/31 03:06:34;;;;;;;;;;;;;;;20.06;49.24;95208.13;2077130;28;1571;-67
2022/05/31 03:07:37;;;;;;;;;;;;;;;20.14;48.89;95206.25;2078179;28;1127;-66
2022/05/31 03:08:39;;;;;;;;;;;;;;;20.13;49.01;95205.44;2082057;28;1708;-67
2022/05/31 03:09:42;;;;;;;;;;;;;;;20.24;48.70;95204.84;2081444;28;1793;-67
2022/05/31 03:10:47;;;;;;;;;;;;;;;20.38;48.31;95202.22;2082408;28;1045;-67
2022/05/31 03:11:53;;;;;;;;;;;;;;;20.38;48.46;95208.38;2082191;28;1089;-67
2022/05/31 03:12:55;;;;;;;;;;;;;;;20.33;48.49;95214.28;2082148;28;1582;-69
2022/05/31 03:14:00;;;;;;;;;;;;;;;20.42;48.52;95214.94;2080339;28;1516;-65
2022/05/31 03:15:02;;;;;;;;;;;;;;;20.48;48.70;95216.75;2076233;28;1731;-66
2022/05/31 03:16:05;;;;;;;;;;;;;;;20.50;48.73;95209.38;2077274;28;1197;-66
2022/05/31 03:17:09;;;;;;;;;;;;;;;20.55;48.45;95214.13;2071183;28;1926;-66
2022/05/31 03:18:15;;;;;;;;;;;;;;;20.58;48.66;95208.34;2071541;28;1102;-64
2022/05/31 03:19:19;;;;;;;;;;;;;;;20.55;48.79;95211.44;2079934;28;1241;-64
2022/05/31 03:20:26;;;;;;;;;;;;;;;20.48;48.74;95213.28;2079329;28;1801;-67
2022/05/31 03:21:31;;;;;;;;;;;;;;;20.37;49.14;95216.56;2080461;28;990;-67
2022/05/31 03:22:35;;;;;;;;;;;;;;;20.40;49.34;95216.97;2080026;28;1813;-66
2022/05/31 03:23:40;;;;;;;;;;;;;;;20.46;49.19;95215.31;2079313;28;1520;-64
2022/05/31 03:24:46;;;;;;;;;;;;;;;20.42;49.28;95214.94;2078977;28;1795;-66
2022/05/31 03:25:50;;;;;;;;;;;;;;;20.34;49.39;95218.59;2076982;28;1454;-66
2022/05/31 03:26:54;;;;;;;;;;;;;;;20.36;49.55;95218.38;2080073;28;1002;-67
2022/05/31 03:27:59;;;;;;;;;;;;;;;20.38;49.46;95223.56;2080356;28;1059;-65
2022/05/31 03:29:02;;;;;;;;;;;;;;;20.44;49.48;95220.88;2074822;28;1814;-66
2022/05/31 03:30:06;;;;;;;;;;;;;;;20.50;49.26;95221.91;2075215;28;1704;-65
2022/05/31 03:31:09;;;;;;;;;;;;;;;20.86;48.60;95216.13;2078897;28;1742;-67
2022/05/31 03:32:12;;;;;;;;;;;;;;;20.84;48.65;95217.38;2078606;28;1534;-68
2022/05/31 03:33:14;;;;;;;;;;;;;;;20.88;48.38;95219.38;2079151;28;1515;-67
2022/05/31 03:34:17;;;;;;;;;;;;;;;20.82;49.24;95225.56;2079460;28;1447;-67
2022/05/31 03:35:19;;;;;;;;;;;;;;;20.77;49.85;95226.22;2073887;28;1577;-67
2022/05/31 03:36:22;;;;;;;;;;;;;;;20.77;49.63;95223.53;2072357;28;1070;-67
2022/05/31 03:37:24;;;;;;;;;;;;;;;20.78;49.36;95224.34;2071602;28;1922;-67
2022/05/31 03:38:27;;;;;;;;;;;;;;;20.80;49.36;95224.97;2077359;28;1795;-64
2022/05/31 03:39:29;;;;;;;;;;;;;;;20.71;49.79;95229.69;2079578;28;1018;-63
2022/05/31 03:41:53;;;;;;;;;;;;;;;20.44;50.50;95228.91;2078338;28;1803;-64
2022/05/31 03:42:58;;;;;;;;;;;;;;;20.38;50.67;95229.72;2078578;28;1299;-64
2022/05/31 03:44:01;;;;;;;;;;;;;;;20.27;50.88;95235.63;2072218;28;1439;-63
2022/05/31 03:45:04;;;;;;;;;;;;;;;20.23;51.01;95227.22;2076421;28;1553;-64
2022/05/31 03:46:10;;;;;;;;;;;;;;;20.30;50.83;95232.56;2076366;28;1480;-71
2022/05/31 03:47:13;;;;;;;;;;;;;;;20.48;50.57;95239.97;2079320;28;919;-65
2022/05/31 03:48:15;;;;;;;;;;;;;;;20.54;50.57;95240.00;2078840;28;1418;-73
2022/05/31 03:49:18;;;;;;;;;;;;;;;20.64;50.28;95244.09;2072963;28;1472;-67
2022/05/31 03:50:19;;;;;;;;;;;;;;;20.65;50.08;95235.03;2075841;28;1401;-71
2022/05/31 03:51:22;;;;;;;;;;;;;;;20.73;49.95;95232.16;2079960;28;1011;-67
2022/05/31 03:52:24;;;;;;;;;;;;;;;20.75;50.64;95241.59;2065378;28;1873;-69
2022/05/31 03:53:27;;;;;;;;;;;;;;;20.75;50.30;95241.59;2078027;28;1794;-70
2022/05/31 03:54:29;;;;;;;;;;;;;;;20.72;50.08;95244.69;2079815;28;1073;-66
2022/05/31 03:55:32;;;;;;;;;;;;;;;20.86;50.61;95244.66;2080938;28;1578;-68
2022/05/31 03:56:36;;;;;;;;;;;;;;;20.86;49.98;95242.00;2082109;28;1050;-67
2022/05/31 03:57:39;;;;;;;;;;;;;;;20.52;50.64;95247.38;2080095;28;1976;-66
2022/05/31 03:58:42;;;;;;;;;;;;;;;20.37;51.43;95243.25;2080912;28;1626;-67
2022/05/31 03:59:44;;;;;;;;;;;;;;;20.29;51.86;95247.75;2081850;28;1721;-64
2022/05/31 04:00:47;;;;;;;;;;;;;;;20.32;52.10;95241.19;2080152;28;1589;-66
2022/05/31 04:01:49;;;;;;;;;;;;;;;20.33;51.79;95245.47;2080251;28;1571;-66
2022/05/31 04:02:52;;;;;;;;;;;;;;;20.22;51.56;95238.91;2079831;28;1516;-66
2022/05/31 04:03:54;;;;;;;;;;;;;;;20.00;52.23;95243.56;2075945;28;1453;-66
2022/05/31 04:04:57;;;;;;;;;;;;;;;19.79;52.29;95247.22;2081875;28;1623;-67
2022/05/31 04:05:59;;;;;;;;;;;;;;;19.77;52.93;95243.13;2080925;28;1158;-67
2022/05/31 04:07:03;;;;;;;;;;;;;;;19.93;52.77;95245.44;2078277;28;2060;-67
2022/05/31 04:08:08;;;;;;;;;;;;;;;20.01;52.34;95247.91;2069240;28;1412;-65
2022/05/31 04:09:11;;;;;;;;;;;;;;;19.98;52.15;95253.66;2076832;28;1282;-67
2022/05/31 04:10:12;;;;;;;;;;;;;;;19.97;52.44;95249.31;2078762;28;1726;-67
2022/05/31 04:11:16;;;;;;;;;;;;;;;19.94;52.32;95248.91;2079349;28;1366;-66
2022/05/31 04:12:17;;;;;;;;;;;;;;;19.97;52.30;95243.97;2079356;28;987;-67
2022/05/31 04:13:23;;;;;;;;;;;;;;;20.01;52.02;95239.91;2079102;28;1904;-67
2022/05/31 04:14:25;;;;;;;;;;;;;;;20.09;52.17;95244.25;2075589;28;1366;-66
2022/05/31 04:15:28;;;;;;;;;;;;;;;20.18;51.52;95244.88;2074568;28;1688;-66
2022/05/31 04:16:31;;;;;;;;;;;;;;;20.20;51.64;95240.94;2079723;28;996;-66
2022/05/31 04:17:34;;;;;;;;;;;;;;;20.37;51.41;95243.25;2077911;28;1768;-66
2022/05/31 04:18:37;;;;;;;;;;;;;;;20.41;51.47;95239.16;2078819;28;1914;-71
2022/05/31 04:19:39;;;;;;;;;;;;;;;20.60;50.79;95245.50;2079573;28;1791;-66
2022/05/31 04:20:42;;;;;;;;;;;;;;;20.61;51.07;95249.84;2078586;28;1734;-66
2022/05/31 04:21:44;;;;;;;;;;;;;;;20.51;51.17;95256.38;2081391;28;1579;-66
2022/05/31 04:22:47;;;;;;;;;;;;;;;20.45;51.32;95257.22;2081486;28;1197;-66
2022/05/31 04:23:58;;;;;;;;;;;;;;;20.48;51.20;95256.00;2081113;28;1181;-66
2022/05/31 04:25:01;;;;;;;;;;;;;;;20.29;51.25;95252.28;2081928;28;1003;-66
2022/05/31 04:26:04;;;;;;;;;;;;;;;20.28;51.56;95250.59;2074870;28;1961;-67
2022/05/31 04:27:07;;;;;;;;;;;;;;;20.29;51.24;95261.09;2071024;28;1169;-66
2022/05/31 04:28:09;;;;;;;;;;;;;;;20.29;51.36;95245.09;2072800;28;1212;-66
2022/05/31 04:29:14;;;;;;;;;;;;;;;20.16;51.64;95253.06;2072603;28;1022;-66
2022/05/31 04:30:15;;;;;;;;;;;;;;;20.08;51.54;95251.41;2072497;28;967;-66
2022/05/31 04:31:18;;;;;;;;;;;;;;;19.98;52.01;95252.84;2071957;28;1013;-65
2022/05/31 04:32:20;;;;;;;;;;;;;;;20.07;51.59;95248.94;2072326;28;1532;-66
2022/05/31 04:33:23;;;;;;;;;;;;;;;20.04;51.80;95252.03;2072937;28;1105;-66
2022/05/31 04:34:27;;;;;;;;;;;;;;;20.10;51.48;95249.34;2072635;28;1289;-66
2022/05/31 04:35:28;;;;;;;;;;;;;;;20.08;51.69;95245.25;2073130;28;1101;-66
2022/05/31 04:36:32;;;;;;;;;;;;;;;20.14;51.46;95243.59;2072570;28;1109;-66
2022/05/31 04:37:34;;;;;;;;;;;;;;;20.24;51.27;95249.38;2067164;28;1282;-65
2022/05/31 04:38:37;;;;;;;;;;;;;;;20.30;51.29;95249.38;2069484;28;1950;-67
2022/05/31 04:39:39;;;;;;;;;;;;;;;20.28;51.53;95254.09;2072757;28;1023;-66
2022/05/31 04:40:42;;;;;;;;;;;;;;;20.33;51.29;95256.16;2072769;28;1547;-66
2022/05/31 04:41:45;;;;;;;;;;;;;;;20.34;51.58;95261.31;2072538;28;1065;-67
2022/05/31 04:42:47;;;;;;;;;;;;;;;20.36;51.36;95254.94;2072926;28;1092;-66
2022/05/31 04:43:51;;;;;;;;;;;;;;;20.39;51.47;95259.88;2072702;28;1098;-66
2022/05/31 04:44:55;;;;;;;;;;;;;;;20.41;51.15;95260.53;2073604;28;1097;-69
2022/05/31 04:45:57;;;;;;;;;;;;;;;20.44;51.40;95260.09;2073178;28;1077;-64
2022/05/31 04:47:01;;;;;;;;;;;;;;;20.48;51.31;95264.81;2073372;28;1042;-66
2022/05/31 04:48:03;;;;;;;;;;;;;;;20.50;50.99;95253.94;2073177;28;1053;-66
2022/05/31 04:49:06;;;;;;;;;;;;;;;20.46;51.29;95258.88;2064546;28;1181;-67
2022/05/31 04:50:08;;;;;;;;;;;;;;;20.47;51.27;95257.03;2073117;28;1537;-66
2022/05/31 04:51:12;;;;;;;;;;;;;;;20.48;50.90;95261.31;2073715;28;1193;-67
2022/05/31 04:52:15;;;;;;;;;;;;;;;20.45;51.43;95264.41;2073326;28;837;-66
2022/05/31 04:53:17;;;;;;;;;;;;;;;20.43;51.86;95266.44;2072987;28;1102;-67
2022/05/31 04:54:20;;;;;;;;;;;;;;;20.41;51.94;95269.34;2073533;28;1046;-66
2022/05/31 04:55:22;;;;;;;;;;;;;;;20.42;51.55;95267.47;2073403;28;1674;-66
2022/05/31 04:56:25;;;;;;;;;;;;;;;20.46;51.54;95263.38;2073379;28;1069;-66
2022/05/31 04:57:27;;;;;;;;;;;;;;;20.50;51.59;95265.44;2073312;28;1094;-67
2022/05/31 04:58:30;;;;;;;;;;;;;;;20.53;51.71;95264.22;2073340;28;1902;-67
2022/05/31 04:59:33;;;;;;;;;;;;;;;20.51;52.00;95263.59;2073407;28;1079;-68
2022/05/31 05:00:36;;;;;;;;;;;;;;;20.54;51.78;95265.84;2064934;28;1108;-66
2022/05/31 05:01:39;;;;;;;;;;;;;;;20.55;51.80;95273.66;2073221;28;1100;-66
2022/05/31 05:02:42;;;;;;;;;;;;;;;20.56;51.59;95274.47;2073187;28;1114;-66
2022/05/31 05:03:45;;;;;;;;;;;;;;;20.57;51.71;95270.75;2073500;28;1065;-67
2022/05/31 05:04:47;;;;;;;;;;;;;;;20.62;51.79;95275.50;2073421;28;1127;-67
2022/05/31 05:05:50;;;;;;;;;;;;;;;20.70;51.59;95278.78;2074829;28;1663;-66
2022/05/31 05:06:52;;;;;;;;;;;;;;;20.67;52.07;95278.38;2074792;28;1189;-66
2022/05/31 05:07:54;;;;;;;;;;;;;;;20.63;52.57;95283.31;2074404;28;1059;-66
2022/05/31 05:08:56;;;;;;;;;;;;;;;20.69;52.63;95282.50;2074876;28;1354;-67
2022/05/31 05:09:59;;;;;;;;;;;;;;;20.76;52.71;95277.13;2075248;28;1073;-66
2022/05/31 05:11:02;;;;;;;;;;;;;;;20.84;52.09;95284.13;2072245;28;1089;-64
2022/05/31 05:12:05;;;;;;;;;;;;;;;20.83;52.35;95282.47;2069503;28;1190;-66
2022/05/31 05:13:07;;;;;;;;;;;;;;;20.79;52.50;95282.88;2075220;28;1046;-67
2022/05/31 05:14:10;;;;;;;;;;;;;;;20.82;52.59;95283.50;2075020;28;1194;-66
2022/05/31 05:15:12;;;;;;;;;;;;;;;20.85;52.68;95277.75;2074659;28;1022;-67
2022/05/31 05:16:17;;;;;;;;;;;;;;;20.87;52.58;95281.03;2074842;28;1137;-67
2022/05/31 05:17:20;;;;;;;;;;;;;;;20.93;52.45;95280.22;2074964;28;1129;-67
2022/05/31 05:18:22;;;;;;;;;;;;;;;20.97;52.07;95282.28;2074788;28;1119;-67
2022/05/31 05:19:24;;;;;;;;;;;;;;;20.96;52.62;95282.47;2074976;28;1902;-67
2022/05/31 05:20:26;;;;;;;;;;;;;;;20.94;52.29;95281.84;2074872;28;1220;-67
2022/05/31 05:21:29;;;;;;;;;;;;;;;20.91;52.35;95276.91;2075110;28;1090;-67
2022/05/31 05:22:31;;;;;;;;;;;;;;;20.90;52.95;95273.44;2070088;28;1130;-67
2022/05/31 05:23:34;;;;;;;;;;;;;;;20.94;52.52;95282.69;2070294;28;1292;-67
2022/05/31 05:24:36;;;;;;;;;;;;;;;20.94;52.51;95280.03;2075056;28;1190;-67
2022/05/31 05:25:39;;;;;;;;;;;;;;;20.94;52.47;95276.50;2074804;28;1150;-66
2022/05/31 05:26:41;;;;;;;;;;;;;;;20.98;52.69;95278.56;2074916;28;1050;-66
2022/05/31 05:27:43;;;;;;;;;;;;;;;21.02;52.22;95284.31;2075020;28;1017;-66
2022/05/31 05:31:28;;;;;;;;;;;;;;;21.12;52.32;95283.91;2074849;28;1324;-67
2022/05/31 05:32:31;;;;;;;;;;;;;;;21.14;52.73;95276.47;2074711;28;1014;-66
2022/05/31 05:33:32;;;;;;;;;;;;;;;21.17;52.69;95281.41;2074910;28;1034;-67
2022/05/31 05:34:41;;;;;;;;;;;;;;;21.22;51.57;95270.94;2067868;28;1078;-66
2022/05/31 05:35:45;;;;;;;;;;;;;;;21.24;51.63;95276.91;2074604;28;1112;-66
2022/05/31 05:36:46;;;;;;;;;;;;;;;21.24;51.85;95279.56;2074975;28;1291;-66
2022/05/31 05:37:49;;;;;;;;;;;;;;;21.28;51.83;95282.66;2074099;28;1281;-65
2022/05/31 05:38:51;;;;;;;;;;;;;;;21.30;51.79;95281.41;2074788;28;1072;-66
2022/05/31 05:39:54;;;;;;;;;;;;;;;21.35;51.32;95280.78;2074813;28;2043;-67